createdAt,value
2018-05-07T00:00:08.927Z,16.40
2018-05-07T00:02:35.803Z,16.30
2018-05-07T00:05:02.759Z,16.20
2018-05-07T00:07:29.684Z,16.20
2018-05-07T00:09:56.547Z,16.20
2018-05-07T00:12:23.510Z,16.10
2018-05-07T00:14:50.437Z,16.10
2018-05-07T00:17:17.292Z,16.00
2018-05-07T00:19:44.212Z,16.00
2018-05-07T00:22:11.157Z,16.00
2018-05-07T00:24:38.094Z,16.00
2018-05-07T00:27:04.958Z,16.00
2018-05-07T00:29:31.918Z,15.90
2018-05-07T00:31:58.845Z,15.80
2018-05-07T00:34:26.526Z,15.70
2018-05-07T00:36:53.447Z,15.70
2018-05-07T00:39:21.178Z,15.60
2018-05-07T00:41:48.119Z,15.60
2018-05-07T00:44:14.994Z,15.60
2018-05-07T00:46:41.957Z,15.70
2018-05-07T00:49:09.645Z,15.60
2018-05-07T00:51:36.632Z,15.60
2018-05-07T00:54:03.569Z,15.60
2018-05-07T00:56:30.501Z,15.60
2018-05-07T00:58:57.420Z,15.60
2018-05-07T01:01:24.299Z,15.50
2018-05-07T01:03:51.232Z,15.50
2018-05-07T01:06:18.174Z,15.40
2018-05-07T01:08:45.052Z,15.40
2018-05-07T01:11:11.998Z,15.40
2018-05-07T01:13:38.855Z,15.30
2018-05-07T01:16:05.722Z,15.20
2018-05-07T01:18:32.666Z,15.30
2018-05-07T01:20:59.543Z,15.30
2018-05-07T01:23:26.467Z,15.30
2018-05-07T01:25:53.420Z,15.30
2018-05-07T01:28:20.333Z,15.30
2018-05-07T01:30:47.241Z,15.10
2018-05-07T01:33:14.093Z,15.10
2018-05-07T01:35:41.075Z,15.10
2018-05-07T01:38:08.698Z,15.20
2018-05-07T01:40:35.647Z,15.10
2018-05-07T01:43:02.574Z,15.00
2018-05-07T01:45:29.505Z,15.00
2018-05-07T01:47:56.438Z,14.90
2018-05-07T01:50:23.406Z,14.90
2018-05-07T01:52:50.284Z,14.90
2018-05-07T01:55:17.184Z,14.80
2018-05-07T01:57:44.106Z,14.90
2018-05-07T02:00:11.902Z,14.90
2018-05-07T02:02:38.789Z,14.90
2018-05-07T02:05:05.716Z,14.90
2018-05-07T02:07:32.590Z,14.80
2018-05-07T02:09:59.512Z,14.70
2018-05-07T02:12:26.439Z,14.70
2018-05-07T02:14:53.451Z,14.70
2018-05-07T02:17:20.393Z,14.70
2018-05-07T02:19:47.312Z,14.60
2018-05-07T02:22:14.178Z,14.60
2018-05-07T02:24:41.109Z,14.50
2018-05-07T02:27:07.980Z,14.50
2018-05-07T02:29:34.831Z,14.50
2018-05-07T02:32:01.757Z,14.50
2018-05-07T02:34:28.627Z,14.40
2018-05-07T02:36:55.583Z,14.40
2018-05-07T02:39:22.508Z,14.30
2018-05-07T02:41:49.415Z,14.30
2018-05-07T02:44:16.280Z,14.20
2018-05-07T02:46:43.986Z,14.20
2018-05-07T02:49:10.853Z,14.20
2018-05-07T02:51:37.788Z,14.20
2018-05-07T02:54:04.665Z,14.30
2018-05-07T02:56:31.663Z,14.30
2018-05-07T02:58:58.587Z,14.20
2018-05-07T03:01:25.601Z,14.30
2018-05-07T03:03:52.461Z,14.30
2018-05-07T03:06:19.399Z,14.40
2018-05-07T03:08:46.338Z,14.40
2018-05-07T03:11:13.199Z,14.30
2018-05-07T03:13:40.131Z,14.30
2018-05-07T03:16:07.069Z,14.20
2018-05-07T03:18:34.028Z,14.30
2018-05-07T03:21:01.023Z,14.30
2018-05-07T03:23:27.907Z,14.30
2018-05-07T03:25:54.847Z,14.40
2018-05-07T03:28:21.730Z,14.40
2018-05-07T03:30:48.654Z,14.50
2018-05-07T03:33:15.509Z,14.50
2018-05-07T03:35:42.430Z,14.50
2018-05-07T03:38:09.351Z,14.40
2018-05-07T03:40:36.293Z,14.30
2018-05-07T03:43:03.936Z,13.90
2018-05-07T03:45:30.798Z,13.90
2018-05-07T03:47:57.725Z,13.70
2018-05-07T03:50:25.323Z,13.40
2018-05-07T03:52:52.270Z,13.40
2018-05-07T03:55:19.124Z,13.40
2018-05-07T03:57:45.981Z,13.40
2018-05-07T04:00:12.915Z,13.40
2018-05-07T04:02:39.869Z,13.50
2018-05-07T04:05:06.793Z,13.70
2018-05-07T04:07:33.721Z,13.80
2018-05-07T04:10:00.576Z,14.00
2018-05-07T04:12:27.606Z,14.10
2018-05-07T04:14:54.466Z,14.10
2018-05-07T04:17:33.481Z,14.20
2018-05-07T04:20:12.576Z,14.10
2018-05-07T04:23:01.263Z,14.10
2018-05-07T04:25:28.405Z,14.00
2018-05-07T04:28:09.912Z,14.10
2018-05-07T04:30:37.556Z,14.10
2018-05-07T04:33:04.873Z,14.20
2018-05-07T04:35:33.898Z,14.20
2018-05-07T04:40:52.602Z,14.50
2018-05-07T04:43:19.668Z,16.10
2018-05-07T04:45:46.626Z,19.50
2018-05-07T04:48:13.822Z,21.50
2018-05-07T04:50:41.417Z,22.00
2018-05-07T04:53:08.429Z,22.00
2018-05-07T04:55:36.034Z,25.00
2018-05-07T04:58:03.470Z,25.00
2018-05-07T05:00:30.376Z,25.50
2018-05-07T05:02:57.372Z,26.40
2018-05-07T05:05:24.289Z,26.30
2018-05-07T05:07:51.980Z,22.40
2018-05-07T05:10:19.530Z,22.30
2018-05-07T05:12:46.455Z,21.40
2018-05-07T05:15:18.235Z,23.20
2018-05-07T05:17:45.460Z,23.20
2018-05-07T05:20:12.337Z,21.50
2018-05-07T05:22:39.330Z,21.20
2018-05-07T05:25:06.188Z,21.00
2018-05-07T05:27:33.109Z,20.00
2018-05-07T05:30:00.112Z,20.20
2018-05-07T05:32:27.694Z,18.90
2018-05-07T05:34:54.617Z,18.90
2018-05-07T05:37:21.554Z,18.10
2018-05-07T05:39:48.453Z,17.50
2018-05-07T05:42:15.376Z,16.90
2018-05-07T05:44:42.249Z,16.70
2018-05-07T05:47:09.171Z,16.50
2018-05-07T05:49:36.144Z,16.40
2018-05-07T05:52:03.014Z,16.40
2018-05-07T05:54:29.937Z,16.40
2018-05-07T05:56:56.789Z,16.60
2018-05-07T05:59:23.657Z,16.70
2018-05-07T06:01:51.319Z,16.70
2018-05-07T06:04:18.168Z,16.70
2018-05-07T06:06:45.824Z,16.80
2018-05-07T06:09:13.517Z,16.90
2018-05-07T06:11:40.453Z,16.80
2018-05-07T06:14:07.324Z,16.80
2018-05-07T06:16:34.280Z,16.70
2018-05-07T06:19:01.160Z,16.80
2018-05-07T06:21:28.004Z,16.80
2018-05-07T06:23:54.929Z,16.70
2018-05-07T06:26:21.784Z,16.70
2018-05-07T06:28:48.723Z,16.60
2018-05-07T06:31:15.602Z,16.60
2018-05-07T06:33:43.273Z,16.80
2018-05-07T06:36:10.124Z,16.70
2018-05-07T06:38:37.065Z,18.20
2018-05-07T06:41:04.021Z,18.70
2018-05-07T06:43:30.931Z,17.70
2018-05-07T06:45:57.933Z,18.50
2018-05-07T06:48:24.777Z,19.40
2018-05-07T06:50:51.624Z,19.40
2018-05-07T06:53:18.555Z,18.70
2018-05-07T06:55:45.485Z,18.40
2018-05-07T06:58:12.358Z,18.20
2018-05-07T07:00:39.300Z,17.90
2018-05-07T07:03:06.218Z,17.70
2018-05-07T07:05:33.278Z,17.60
2018-05-07T07:08:00.450Z,17.70
2018-05-07T07:10:27.619Z,17.80
2018-05-07T07:12:54.648Z,17.60
2018-05-07T07:15:21.794Z,17.70
2018-05-07T07:17:48.722Z,17.90
2018-05-07T07:20:15.593Z,18.10
2018-05-07T07:22:42.507Z,18.00
2018-05-07T07:25:12.692Z,18.00
2018-05-07T07:27:39.572Z,18.30
2018-05-07T07:30:07.254Z,20.60
2018-05-07T07:32:34.178Z,20.50
2018-05-07T07:35:01.041Z,19.70
2018-05-07T07:37:30.044Z,20.10
2018-05-07T07:39:57.089Z,20.30
2018-05-07T07:42:23.963Z,20.00
2018-05-07T07:44:50.849Z,19.50
2018-05-07T07:47:17.835Z,20.30
2018-05-07T07:49:44.701Z,19.80
2018-05-07T07:52:11.655Z,20.20
2018-05-07T07:54:38.567Z,20.00
2018-05-07T07:57:05.514Z,19.70
2018-05-07T07:59:32.432Z,19.40
2018-05-07T08:01:59.356Z,19.30
2018-05-07T08:04:26.285Z,19.50
2018-05-07T08:06:53.153Z,20.00
2018-05-07T08:09:20.872Z,23.00
2018-05-07T08:11:47.819Z,22.90
2018-05-07T08:14:14.771Z,27.60
2018-05-07T08:16:41.705Z,30.30
2018-05-07T08:19:08.545Z,32.90
2018-05-07T08:21:35.476Z,35.10
2018-05-07T08:24:02.401Z,33.00
2018-05-07T08:26:30.005Z,36.20
2018-05-07T08:28:56.950Z,36.10
2018-05-07T08:31:23.834Z,36.40
2018-05-07T08:33:50.735Z,37.10
2018-05-07T08:36:17.665Z,34.00
2018-05-07T08:38:44.595Z,32.50
2018-05-07T08:41:11.456Z,34.50
2018-05-07T08:43:38.381Z,35.70
2018-05-07T08:46:06.053Z,36.60
2018-05-07T08:48:32.908Z,36.60
2018-05-07T08:50:59.828Z,35.30
2018-05-07T08:53:27.420Z,33.10
2018-05-07T08:55:54.320Z,33.10
2018-05-07T08:58:21.192Z,31.50
2018-05-07T09:00:48.105Z,34.10
2018-05-07T09:03:14.957Z,33.50
2018-05-07T09:05:41.864Z,33.20
2018-05-07T09:08:08.771Z,31.80
2018-05-07T09:10:36.421Z,29.70
2018-05-07T09:13:03.350Z,29.50
2018-05-07T09:15:30.198Z,28.70
2018-05-07T09:17:57.116Z,29.20
2018-05-07T09:20:23.974Z,27.90
2018-05-07T09:22:50.813Z,28.70
2018-05-07T09:25:17.725Z,28.40
2018-05-07T09:27:44.573Z,28.40
2018-05-07T09:30:11.496Z,29.00
2018-05-07T09:32:38.357Z,29.60
2018-05-07T09:35:05.316Z,30.10
2018-05-07T09:37:32.157Z,30.30
2018-05-07T09:39:59.113Z,29.20
2018-05-07T09:42:25.949Z,30.50
2018-05-07T09:44:52.864Z,30.60
2018-05-07T09:47:19.725Z,30.20
2018-05-07T09:49:46.627Z,29.30
2018-05-07T09:52:13.469Z,29.70
2018-05-07T09:54:40.406Z,29.70
2018-05-07T09:57:07.351Z,29.40
2018-05-07T09:59:34.264Z,28.60
2018-05-07T10:02:01.193Z,29.50
2018-05-07T10:04:28.117Z,29.10
2018-05-07T10:06:54.987Z,28.30
2018-05-07T10:09:21.929Z,28.10
2018-05-07T10:11:51.450Z,28.30
2018-05-07T10:14:18.582Z,28.80
2018-05-07T10:16:45.524Z,28.80
2018-05-07T10:19:12.454Z,29.60
2018-05-07T10:21:40.117Z,28.30
2018-05-07T10:24:07.792Z,28.60
2018-05-07T10:26:34.737Z,28.60
2018-05-07T10:29:01.638Z,28.50
2018-05-07T10:31:28.593Z,28.00
2018-05-07T10:33:55.532Z,28.70
2018-05-07T10:36:22.405Z,27.10
2018-05-07T10:38:50.477Z,27.20
2018-05-07T10:41:18.092Z,27.20
2018-05-07T10:43:45.090Z,27.20
2018-05-07T10:46:12.776Z,27.90
2018-05-07T10:48:39.648Z,27.80
2018-05-07T10:51:06.573Z,27.20
2018-05-07T10:53:33.541Z,27.90
2018-05-07T10:56:00.422Z,27.70
2018-05-07T10:58:27.302Z,28.00
2018-05-07T11:00:54.230Z,27.80
2018-05-07T11:03:21.890Z,26.90
2018-05-07T11:05:49.509Z,26.40
2018-05-07T11:08:16.381Z,26.40
2018-05-07T11:10:43.308Z,26.70
2018-05-07T11:13:10.251Z,26.30
2018-05-07T11:15:37.259Z,26.60
2018-05-07T11:18:04.125Z,27.50
2018-05-07T11:20:31.053Z,27.50
2018-05-07T11:22:57.983Z,27.80
2018-05-07T11:25:25.218Z,27.50
2018-05-07T11:27:52.818Z,26.60
2018-05-07T11:30:19.756Z,26.60
2018-05-07T11:32:46.631Z,26.80
2018-05-07T11:35:13.553Z,27.40
2018-05-07T11:37:40.470Z,27.60
2018-05-07T11:40:08.058Z,27.20
2018-05-07T11:42:34.978Z,27.30
2018-05-07T11:45:01.850Z,27.90
2018-05-07T11:47:28.708Z,27.80
2018-05-07T11:49:55.688Z,28.00
2018-05-07T11:52:22.548Z,27.40
2018-05-07T11:54:50.212Z,27.00
2018-05-07T11:57:17.881Z,27.20
2018-05-07T11:59:45.575Z,27.20
2018-05-07T12:02:12.454Z,27.20
2018-05-07T12:04:39.468Z,28.00
2018-05-07T12:07:06.333Z,28.30
2018-05-07T12:09:33.262Z,28.20
2018-05-07T12:12:01.099Z,28.20
2018-05-07T12:14:28.827Z,28.20
2018-05-07T12:16:55.803Z,28.20
2018-05-07T12:19:22.777Z,27.00
2018-05-07T12:21:49.709Z,27.10
2018-05-07T12:24:16.661Z,27.50
2018-05-07T12:26:43.647Z,27.40
2018-05-07T12:29:10.497Z,27.20
2018-05-07T12:31:37.517Z,27.80
2018-05-07T12:34:04.330Z,27.50
2018-05-07T12:36:33.215Z,26.60
2018-05-07T12:39:07.813Z,26.60
2018-05-07T12:41:35.230Z,26.80
2018-05-07T12:44:02.178Z,27.20
2018-05-07T12:46:29.058Z,27.10
2018-05-07T12:48:55.898Z,27.60
2018-05-07T12:51:22.810Z,27.70
2018-05-07T12:53:49.659Z,27.70
2018-05-07T12:56:16.611Z,28.00
2018-05-07T12:58:43.878Z,27.70
2018-05-07T13:01:12.124Z,27.60
2018-05-07T13:03:39.206Z,27.60
2018-05-07T13:06:07.206Z,27.30
2018-05-07T13:08:34.254Z,27.30
2018-05-07T13:11:06.394Z,27.40
2018-05-07T13:13:37.071Z,27.30
2018-05-07T13:16:05.398Z,27.20
2018-05-07T13:18:36.641Z,27.40
2018-05-07T13:21:04.102Z,27.00
2018-05-07T13:23:31.818Z,27.40
2018-05-07T13:25:59.405Z,27.50
2018-05-07T13:28:27.685Z,27.50
2018-05-07T13:30:55.145Z,27.80
2018-05-07T13:33:22.145Z,27.60
2018-05-07T13:35:49.146Z,27.50
2018-05-07T13:38:16.393Z,27.60
2018-05-07T13:40:44.182Z,27.40
2018-05-07T13:43:11.163Z,26.50
2018-05-07T13:45:38.774Z,27.00
2018-05-07T13:48:05.701Z,27.00
2018-05-07T13:50:32.691Z,27.10
2018-05-07T13:52:59.566Z,27.40
2018-05-07T13:55:26.401Z,27.60
2018-05-07T13:57:53.320Z,27.80
2018-05-07T14:00:20.196Z,27.70
2018-05-07T14:02:50.877Z,27.50
2018-05-07T14:05:18.954Z,27.70
2018-05-07T14:07:45.889Z,27.60
2018-05-07T14:10:12.807Z,27.70
2018-05-07T14:12:50.968Z,27.40
2018-05-07T14:15:22.654Z,27.30
2018-05-07T14:17:52.169Z,27.20
2018-05-07T14:20:21.874Z,27.20
2018-05-07T14:22:54.041Z,27.10
2018-05-07T14:25:29.891Z,26.90
2018-05-07T14:28:04.889Z,27.00
2018-05-07T14:30:41.663Z,27.20
2018-05-07T14:33:16.875Z,27.00
2018-05-07T14:35:43.954Z,27.00
2018-05-07T14:38:15.082Z,26.90
2018-05-07T14:40:42.012Z,27.00
2018-05-07T14:43:09.637Z,27.10
2018-05-07T14:45:36.605Z,27.10
2018-05-07T14:48:03.645Z,27.00
2018-05-07T14:50:30.528Z,26.60
2018-05-07T14:52:57.485Z,26.70
2018-05-07T14:55:25.982Z,26.70
2018-05-07T14:57:52.945Z,26.40
2018-05-07T15:00:19.815Z,26.70
2018-05-07T15:02:47.866Z,26.80
2018-05-07T15:05:18.235Z,26.90
2018-05-07T15:07:46.787Z,27.10
2018-05-07T15:10:13.806Z,26.90
2018-05-07T15:12:41.505Z,27.00
2018-05-07T15:15:09.552Z,26.70
2018-05-07T15:17:36.563Z,26.70
2018-05-07T15:20:03.604Z,26.70
2018-05-07T15:22:30.550Z,26.70
2018-05-07T15:24:57.422Z,26.90
2018-05-07T15:27:26.243Z,26.50
2018-05-07T15:29:53.258Z,26.60
2018-05-07T15:32:22.221Z,26.60
2018-05-07T15:34:52.339Z,26.30
2018-05-07T15:37:37.931Z,26.30
2018-05-07T15:40:16.623Z,26.20
2018-05-07T15:42:50.659Z,26.20
2018-05-07T15:45:21.808Z,26.50
2018-05-07T15:47:50.114Z,26.10
2018-05-07T15:50:26.745Z,26.30
2018-05-07T15:52:54.516Z,26.40
2018-05-07T15:55:31.068Z,26.40
2018-05-07T15:57:59.857Z,26.10
2018-05-07T16:03:15.864Z,26.10
2018-05-07T16:08:32.174Z,26.30
2018-05-07T16:11:03.879Z,26.40
2018-05-07T16:13:30.880Z,26.30
2018-05-07T16:16:01.293Z,26.30
2018-05-07T16:18:32.294Z,26.20
2018-05-07T16:21:14.610Z,25.90
2018-05-07T16:23:43.506Z,25.80
2018-05-07T16:26:14.861Z,25.80
2018-05-07T16:28:43.443Z,25.80
2018-05-07T16:31:12.420Z,25.50
2018-05-07T16:33:48.202Z,25.80
2018-05-07T16:36:15.430Z,25.80
2018-05-07T16:38:42.438Z,25.90
2018-05-07T16:41:09.682Z,26.10
2018-05-07T16:43:36.590Z,26.00
2018-05-07T16:46:03.513Z,26.00
2018-05-07T16:48:30.702Z,26.20
2018-05-07T16:51:00.682Z,25.70
2018-05-07T16:53:27.553Z,25.60
2018-05-07T16:56:07.350Z,25.80
2018-05-07T16:58:35.311Z,25.60
2018-05-07T17:01:12.053Z,25.80
2018-05-07T17:03:50.045Z,25.70
2018-05-07T17:06:27.935Z,25.60
2018-05-07T17:09:06.705Z,25.70
2018-05-07T17:11:45.248Z,25.80
2018-05-07T17:14:12.785Z,25.80
2018-05-07T17:16:39.780Z,25.80
2018-05-07T17:19:06.697Z,25.90
2018-05-07T17:21:33.639Z,25.80
2018-05-07T17:24:00.527Z,25.70
2018-05-07T17:26:27.461Z,25.60
2018-05-07T17:28:55.090Z,25.30
2018-05-07T17:31:21.968Z,25.30
2018-05-07T17:33:48.956Z,25.20
2018-05-07T17:36:15.926Z,25.30
2018-05-07T17:38:42.778Z,25.50
2018-05-07T17:41:09.710Z,25.30
2018-05-07T17:43:36.587Z,25.20
2018-05-07T17:46:25.036Z,25.20
2018-05-07T17:48:59.053Z,25.20
2018-05-07T17:51:26.742Z,25.10
2018-05-07T17:53:53.601Z,25.10
2018-05-07T17:56:20.476Z,25.10
2018-05-07T17:58:47.444Z,25.00
2018-05-07T18:01:15.004Z,25.10
2018-05-07T18:03:49.968Z,25.00
2018-05-07T18:06:21.932Z,24.90
2018-05-07T18:08:50.404Z,24.90
2018-05-07T18:11:27.323Z,24.90
2018-05-07T18:13:54.445Z,24.90
2018-05-07T18:16:21.507Z,24.80
2018-05-07T18:18:48.418Z,24.80
2018-05-07T18:21:16.689Z,24.70
2018-05-07T18:23:43.681Z,24.70
2018-05-07T18:26:10.546Z,24.70
2018-05-07T18:28:37.733Z,24.60
2018-05-07T18:31:05.357Z,24.40
2018-05-07T18:33:33.289Z,24.40
2018-05-07T18:36:00.203Z,24.20
2018-05-07T18:38:28.006Z,24.10
2018-05-07T18:40:56.071Z,24.10
2018-05-07T18:43:22.931Z,24.00
2018-05-07T18:45:50.016Z,23.80
2018-05-07T18:48:16.886Z,23.50
2018-05-07T18:50:43.808Z,23.30
2018-05-07T18:53:10.746Z,23.10
2018-05-07T18:55:39.860Z,23.00
2018-05-07T18:58:16.263Z,22.60
2018-05-07T19:00:45.645Z,22.60
2018-05-07T19:03:13.581Z,22.40
2018-05-07T19:05:40.511Z,22.40
2018-05-07T19:08:11.723Z,22.30
2018-05-07T19:10:38.716Z,22.20
2018-05-07T19:13:05.653Z,22.00
2018-05-07T19:15:33.025Z,21.80
2018-05-07T19:18:04.206Z,21.70
2018-05-07T19:20:31.526Z,21.50
2018-05-07T19:22:58.446Z,21.40
2018-05-07T19:25:25.606Z,21.20
2018-05-07T19:27:52.537Z,21.00
2018-05-07T19:30:19.398Z,21.10
2018-05-07T19:32:46.297Z,21.00
2018-05-07T19:35:13.969Z,20.90
2018-05-07T19:37:40.827Z,20.90
2018-05-07T19:40:07.688Z,20.80
2018-05-07T19:42:34.612Z,20.80
2018-05-07T19:45:01.552Z,20.80
2018-05-07T19:47:28.463Z,21.00
2018-05-07T19:49:56.927Z,21.20
2018-05-07T19:52:23.793Z,21.20
2018-05-07T19:54:53.602Z,21.30
2018-05-07T19:57:20.616Z,21.30
2018-05-07T19:59:49.513Z,21.30
2018-05-07T20:02:16.484Z,21.40
2018-05-07T20:04:43.346Z,21.30
2018-05-07T20:07:11.015Z,21.30
2018-05-07T20:09:39.189Z,21.30
2018-05-07T20:12:07.509Z,21.30
2018-05-07T20:14:34.376Z,21.30
2018-05-07T20:17:01.309Z,21.30
2018-05-07T20:19:28.342Z,21.30
2018-05-07T20:21:55.289Z,21.10
2018-05-07T20:24:52.953Z,21.10
2018-05-07T20:27:21.590Z,20.90
2018-05-07T20:29:49.268Z,20.80
2018-05-07T20:32:16.901Z,20.70
2018-05-07T20:34:43.757Z,20.70
2018-05-07T20:37:11.426Z,20.70
2018-05-07T20:39:39.146Z,20.70
2018-05-07T20:42:06.081Z,20.70
2018-05-07T20:44:34.796Z,20.60
2018-05-07T20:47:03.664Z,20.60
2018-05-07T20:49:31.926Z,20.40
2018-05-07T20:51:58.926Z,20.40
2018-05-07T20:54:25.805Z,20.20
2018-05-07T20:56:53.708Z,20.20
2018-05-07T20:59:21.779Z,20.20
2018-05-07T21:01:50.703Z,20.20
2018-05-07T21:04:19.970Z,20.10
2018-05-07T21:06:48.764Z,20.10
2018-05-07T21:09:18.385Z,20.00
2018-05-07T21:11:45.237Z,20.00
2018-05-07T21:14:12.257Z,20.00
2018-05-07T21:16:39.115Z,19.90
2018-05-07T21:19:05.990Z,19.90
2018-05-07T21:21:33.450Z,19.80
2018-05-07T21:24:00.370Z,19.80
2018-05-07T21:26:27.314Z,19.80
2018-05-07T21:28:54.174Z,19.80
2018-05-07T21:31:21.120Z,19.70
2018-05-07T21:33:47.997Z,19.70
2018-05-07T21:36:15.736Z,19.60
2018-05-07T21:38:42.606Z,19.60
2018-05-07T21:41:10.229Z,19.60
2018-05-07T21:43:37.167Z,19.60
2018-05-07T21:46:04.072Z,19.50
2018-05-07T21:48:31.433Z,19.50
2018-05-07T21:51:11.260Z,19.50
2018-05-07T21:53:39.057Z,19.50
2018-05-07T21:56:05.913Z,19.40
2018-05-07T21:58:33.466Z,19.30
2018-05-07T22:01:00.677Z,19.20
2018-05-07T22:03:28.350Z,19.10
2018-05-07T22:05:55.779Z,19.10
2018-05-07T22:08:22.699Z,19.10
2018-05-07T22:10:51.486Z,19.10
2018-05-07T22:13:18.427Z,19.20
2018-05-07T22:15:45.289Z,19.20
2018-05-07T22:18:12.210Z,19.20
2018-05-07T22:20:39.067Z,19.20
2018-05-07T22:23:06.054Z,19.20
2018-05-07T22:25:32.987Z,19.20
2018-05-07T22:28:01.119Z,19.20
2018-05-07T22:30:28.086Z,19.10
2018-05-07T22:32:55.004Z,19.10
2018-05-07T22:35:22.681Z,19.00
2018-05-07T22:37:49.606Z,19.00
2018-05-07T22:40:16.505Z,19.00
2018-05-07T22:42:44.023Z,18.90
2018-05-07T22:45:10.946Z,18.90
2018-05-07T22:47:37.815Z,18.80
2018-05-07T22:50:04.761Z,18.80
2018-05-07T22:52:31.610Z,18.70
2018-05-07T22:55:18.669Z,18.50
2018-05-07T22:57:45.617Z,18.30
2018-05-07T23:00:20.843Z,18.20
2018-05-07T23:02:48.779Z,18.20
2018-05-07T23:05:15.709Z,18.10
2018-05-07T23:07:42.599Z,18.00
2018-05-07T23:10:09.560Z,18.10
2018-05-07T23:12:36.448Z,18.00
2018-05-07T23:15:03.541Z,18.00
2018-05-07T23:17:30.479Z,18.00
2018-05-07T23:19:57.362Z,17.90
2018-05-07T23:22:24.345Z,17.90
2018-05-07T23:24:51.266Z,17.90
2018-05-07T23:27:18.855Z,17.70
2018-05-07T23:29:45.797Z,17.70
2018-05-07T23:32:12.710Z,17.80
2018-05-07T23:34:39.560Z,17.80
2018-05-07T23:37:07.220Z,17.70
2018-05-07T23:39:34.810Z,17.70
2018-05-07T23:42:01.724Z,17.70
2018-05-07T23:44:29.399Z,17.70
2018-05-07T23:46:56.360Z,17.70
2018-05-07T23:49:23.253Z,17.70
2018-05-07T23:51:50.178Z,17.60
2018-05-07T23:54:17.053Z,17.60
2018-05-07T23:56:43.948Z,17.60
2018-05-07T23:59:10.866Z,17.70
